Thursday, May 26, 2016
14:31 UTC
  |  Log In   |  Register Free
Airport Search:

Tyler Pounds Regional Airport
(KTYR)

FAA data valid effective Mar 31 2016 - May 26 2016 (unless otherwise noted).

 
 
 
 
 
 
 
 
 
 
 
 
 
 
Current Aviation Weather for KTYR

Weather Summary


The most recent METAR observation for TYR was updated at: 12:58 UTC
METAR for KTYR is not available. Closest METAR is for KJDD
KTYR  (most recent observation was updatred at 26:13 UTC)
261353Z 17011G18KT 10SM BKN011 BKN024 26/23 A2996 RMK AO2 SLP139 T02560228

KJDD  (23.8 nm SE)   (most recent observation was updated at 26:14 UTC)
261415Z AUTO 16007KT 7SM OVC001 26/23 A2998 RMK AO2

KJSO  (30.6 nm NW)   (most recent observation was updated at 26:14 UTC)
261415Z AUTO 17006KT 10SM BKN007 BKN013 25/23 A3002 RMK AO2 LTG DSNT S AND W T02470236

TAF for KTYR is not available.
KTYR
261154Z 2612/2712 17010KT P6SM BKN010 BKN020 FM261600 16013G22KT P6SM BKN035 FM261800 17013G22KT P6SM VCTS BKN040CB OVC080 FM261900 17013G22KT 4SM -TSRA BR OVC040CB FM270000 16009KT P6SM VCTS BKN040CB OVC080 FM270900 16009KT P6SM VCTS BKN015 BKN040CB

GlobalAir.com is loading additional information.
 Current Weather at TYR
78.0 F° (25.6 C°)

South winds at 10.4 mph
Pressure:
29.97 in
Humidity:
82%
Wind:
South at 10.4 mph
Dew Point:
72.0 F° (22.2 C°)
Visibility:
10.00 mi
TYR NOAA Radar




Find All Airport Services Find A Hotel Find A Rental Car Find A Golf Course Find A Restaurant $100 Hamburger



Airport Weather Forecast for KTYR

Translated METAR for KTYR (1353 UTC)
METAR:
KTYR 261353Z 17011G18KT 10SM BKN011 BKN024 26/23 A2996 RMK AO2 SLP139 T02560228
Conditions at:
KTYR (Tyler Pounds Rgnl, TX) observed 1353 UTC 26 May 2016
Temperature:
26°C (78.8°F)
Dewpoint:
23°C (73.4°F) [RH = 83.6]
Pressure:
29.96 inches Hg (1014.6 mb)
pressure at sea level is 139 in Hg
Winds:
from the S (170 degrees) at 12.7 mph (11 knots: 5.7 m/s)
gusting to 20.7 mph (18 knots: 9.3 m/s)
Visibility:
10 mile(s)
Ceiling:
1,100 feet AGL
Clouds:
Broken Cloud Cover at 1,100 feet AGL
Broken Cloud Cover at 2,400 feet AGL
Remarks:
site is automated and HAS a precipitation sensor

Translated TAF for KTYR (Tyler Pounds Rgnl, TX) (1154 UTC)
TAF text:
KTYR 261154Z 2612/2712 17010KT P6SM BKN010 BKN020
Forecast period:
Thursday May 26 2016 12:00 UTC - Friday May 27 2016 12:00 UTC
Forecast type:
FROM: standard forecast or significant change
Winds:
from the S (170 degrees) at 11.5 mph (10 knots: 5.1 m/s)
Visibility:
6 or more mile(s) (9.7+ km)
Ceiling:
1,000 feet AGL
Clouds:
Broken Cloud Cover at 1,000 feet AGL
Broken Cloud Cover at 2,000 feet AGL
Weather:
no significant weather observed at this time
TAF text:
FM261600 16013G22KT P6SM BKN035
Forecast period:
Thursday May 26 2016 16:00 UTC - Thursday May 26 2016 18:00 UTC
Forecast type:
FROM: standard forecast or significant change
Winds:
from the SSE (160 degrees) at 15 mph (13 knots: 6.7 m/s)
gusting to 25.3 mph (22 knots: 11.3 m/s)
Visibility:
6 or more mile(s) (9.7+ km)
Ceiling:
3,500 feet AGL
Clouds:
Broken Cloud Cover at 3,500 feet AGL
Weather:
no significant weather observed at this time
TAF text:
FM261800 17013G22KT P6SM VCTS BKN040CB OVC080
Forecast period:
Thursday May 26 2016 18:00 UTC - Thursday May 26 2016 19:00 UTC
Forecast type:
FROM: standard forecast or significant change
Winds:
from the S (170 degrees) at 15 mph (13 knots: 6.7 m/s)
gusting to 25.3 mph (22 knots: 11.3 m/s)
Visibility:
6 or more mile(s) (9.7+ km)
Ceiling:
8,000 feet AGL
Clouds:
Overcast Skies at 8,000 feet AGL
Weather:
Moderate In Vicinity Thunderstorm
TAF text:
FM261900 17013G22KT 4SM -TSRA BR OVC040CB
Forecast period:
Thursday May 26 2016 19:00 UTC - Friday May 27 2016 00:00 UTC
Forecast type:
FROM: standard forecast or significant change
Winds:
from the S (170 degrees) at 15 mph (13 knots: 6.7 m/s)
gusting to 25.3 mph (22 knots: 11.3 m/s)
Visibility:
4 mile(s) (6.4 km)
Ceiling:
Clouds:
Weather:
Light Thunderstorm Rain
TAF text:
FM270000 16009KT P6SM VCTS BKN040CB OVC080
Forecast period:
Friday May 27 2016 00:00 UTC - Friday May 27 2016 09:00 UTC
Forecast type:
FROM: standard forecast or significant change
Winds:
from the SSE (160 degrees) at 10.4 mph (9 knots: 4.6 m/s)
Visibility:
6 or more mile(s) (9.7+ km)
Ceiling:
8,000 feet AGL
Clouds:
Overcast Skies at 8,000 feet AGL
Weather:
Moderate In Vicinity Thunderstorm
TAF text:
FM270900 16009KT P6SM VCTS BKN015 BKN040CB
Forecast period:
Friday May 27 2016 09:00 UTC - Friday May 27 2016 12:00 UTC
Forecast type:
FROM: standard forecast or significant change
Winds:
from the SSE (160 degrees) at 10.4 mph (9 knots: 4.6 m/s)
Visibility:
6 or more mile(s) (9.7+ km)
Ceiling:
1,500 feet AGL
Clouds:
Broken Cloud Cover at 1,500 feet AGL
Broken Cloud Cover
Weather:
Moderate In Vicinity Thunderstorm
FBO's on the Field
FBO Company Facility Photos Services Transportation Aviation Fuel Prices: Prices include tax
Catering Weather Repair Courtesy Rental Type 100LL JetA JetA+ MOGAS 8087
 
Jet Center of Tyler

Currently rated 5 by 2 people
FS:Phillips 66
Last Updated: May-24
Login to update fuel prices
SS:
Contact Jet Center of TylerMore FBO Information
 
Johnson Aviation, Inc

Currently rated 5 by 3 people
FS:Avfuel
Last Updated: Apr-25
Login to update fuel prices
SS:
Contact Johnson Aviation, IncMore FBO Information
 
Add another FBO Facility Photos Catering Weather Repair Courtesy Rental Type 100LL JetA JetA+ MOGAS 8087
Services Transportation Aviation Fuel Prices: Prices include tax


model-print
model-print
model-print
model-print